Time;durP1;ratioP1;P1;durP2;ratioP2;P2;SDS_P1;SDS_P2;PMS_P1;PMS_P2;Temp;Humidity;BMP_temperature;BMP_pressure;BME280_temperature;BME280_humidity;BME280_pressure;Samples;Min_cycle;Max_cycle;Signal;HPM_P1;HPM_P2
2023/02/07 00:00:45;;;;;;;14.35;11.85;;;-1.20;99.90;;;;;;5133741;27;20782;-64
2023/02/07 00:03:12;;;;;;;15.02;12.02;;;-1.20;99.90;;;;;;5133886;27;20406;-65
2023/02/07 00:05:39;;;;;;;16.70;12.75;;;-1.20;99.90;;;;;;5133994;27;20479;-65
2023/02/07 00:08:07;;;;;;;17.27;13.30;;;-1.20;99.90;;;;;;5135527;27;20413;-64
2023/02/07 00:10:35;;;;;;;18.13;13.30;;;-1.30;99.90;;;;;;5134438;27;20762;-63
2023/02/07 00:13:02;;;;;;;16.00;12.70;;;-1.30;99.90;;;;;;5134802;27;20413;-64
2023/02/07 00:15:29;;;;;;;17.20;13.70;;;-1.30;99.90;;;;;;5133953;28;20432;-64
2023/02/07 00:17:55;;;;;;;17.30;12.73;;;-1.30;99.90;;;;;;5134593;28;20422;-63
2023/02/07 00:20:24;;;;;;;17.95;12.95;;;-1.30;99.90;;;;;;5133988;28;20410;-63
2023/02/07 00:22:51;;;;;;;17.05;13.00;;;-1.30;99.90;;;;;;5134271;28;20414;-64
2023/02/07 00:25:19;;;;;;;18.80;13.60;;;-1.40;99.90;;;;;;5133677;28;20932;-64
2023/02/07 00:27:46;;;;;;;18.10;13.10;;;-1.40;99.90;;;;;;5138656;27;20406;-64
2023/02/07 00:30:13;;;;;;;19.08;14.05;;;-1.40;99.90;;;;;;5139608;27;20413;-63
2023/02/07 00:32:40;;;;;;;17.73;13.27;;;-1.40;99.90;;;;;;5138518;27;20592;-62
2023/02/07 00:35:07;;;;;;;16.63;13.00;;;-1.40;99.90;;;;;;5139040;27;20415;-62
2023/02/07 00:37:34;;;;;;;19.00;13.75;;;-1.40;99.90;;;;;;5139018;27;20410;-63
2023/02/07 00:40:01;;;;;;;17.63;13.33;;;-1.50;99.90;;;;;;5137556;27;20416;-62
2023/02/07 00:42:29;;;;;;;18.90;14.23;;;-1.50;99.90;;;;;;5137636;27;20406;-63
2023/02/07 00:44:56;;;;;;;18.27;13.70;;;-1.50;99.90;;;;;;5137724;27;20889;-62
2023/02/07 00:47:23;;;;;;;19.77;14.20;;;-1.50;99.90;;;;;;5143486;27;20907;-63
2023/02/07 00:49:50;;;;;;;17.17;13.80;;;-1.50;99.90;;;;;;5137828;27;20489;-63
2023/02/07 00:52:16;;;;;;;21.90;14.80;;;-1.50;99.90;;;;;;5137588;27;20474;-63
2023/02/07 00:54:43;;;;;;;21.58;14.70;;;-1.60;99.90;;;;;;5137273;27;20411;-64
2023/02/07 00:57:10;;;;;;;17.73;13.50;;;-1.60;99.90;;;;;;5137078;27;20426;-63
2023/02/07 00:59:38;;;;;;;18.90;14.02;;;-1.60;99.90;;;;;;5137754;27;20410;-63
2023/02/07 01:02:05;;;;;;;19.83;14.52;;;-1.60;99.90;;;;;;5137219;27;20418;-62
2023/02/07 01:04:32;;;;;;;18.98;14.00;;;-1.60;99.90;;;;;;5137027;27;20877;-63
2023/02/07 01:06:58;;;;;;;19.30;14.40;;;-1.60;99.90;;;;;;5137449;27;20735;-63
2023/02/07 01:09:25;;;;;;;18.30;14.10;;;-1.60;99.90;;;;;;5137151;27;20415;-63
2023/02/07 01:11:52;;;;;;;17.98;14.23;;;-1.60;99.90;;;;;;5137216;27;20406;-63
2023/02/07 01:14:19;;;;;;;18.27;13.40;;;-1.60;99.90;;;;;;5137203;27;20417;-63
2023/02/07 01:16:47;;;;;;;17.65;13.80;;;-1.70;99.90;;;;;;5136670;27;20433;-63
2023/02/07 01:19:14;;;;;;;16.98;13.35;;;-1.60;99.90;;;;;;5136509;27;20433;-63
2023/02/07 01:21:41;;;;;;;20.05;13.90;;;-1.70;99.90;;;;;;5136278;27;20467;-64
2023/02/07 01:24:09;;;;;;;21.03;14.60;;;-1.70;99.90;;;;;;5136532;27;20517;-64
2023/02/07 01:26:36;;;;;;;20.02;14.40;;;-1.70;99.90;;;;;;5136493;27;20777;-64
2023/02/07 01:29:03;;;;;;;20.58;14.95;;;-1.70;99.90;;;;;;5137583;27;20981;-64
2023/02/07 01:31:30;;;;;;;20.15;14.55;;;-1.70;99.90;;;;;;5136447;27;20417;-64
2023/02/07 01:34:00;;;;;;;20.47;15.20;;;-1.70;99.90;;;;;;5136341;27;20425;-63
2023/02/07 01:36:28;;;;;;;19.67;14.85;;;-1.70;99.90;;;;;;5136292;27;20417;-63
2023/02/07 01:38:55;;;;;;;21.92;15.02;;;-1.70;99.90;;;;;;5135256;27;20417;-62
2023/02/07 01:41:24;;;;;;;20.75;14.90;;;-1.80;99.90;;;;;;5136221;27;20410;-63
2023/02/07 01:43:56;;;;;;;21.73;15.07;;;-1.80;99.90;;;;;;5136463;27;20460;-63
2023/02/07 01:46:23;;;;;;;20.90;15.27;;;-1.80;99.90;;;;;;5136039;27;20467;-63
2023/02/07 01:48:51;;;;;;;19.05;14.57;;;-1.80;99.90;;;;;;5136257;27;20407;-64
2023/02/07 01:51:20;;;;;;;18.63;14.13;;;-1.80;99.90;;;;;;5135814;27;20479;-63
2023/02/07 01:53:47;;;;;;;20.15;14.90;;;-1.80;99.90;;;;;;5135540;27;20421;-64
2023/02/07 01:56:16;;;;;;;20.80;14.00;;;-1.80;99.90;;;;;;5135659;27;20419;-63
2023/02/07 01:58:43;;;;;;;18.92;14.68;;;-1.80;99.90;;;;;;5135824;27;20403;-63
2023/02/07 02:01:14;;;;;;;19.85;14.20;;;-1.80;99.90;;;;;;5135419;27;20414;-63
2023/02/07 02:03:45;;;;;;;19.55;14.45;;;-1.80;99.90;;;;;;5135356;27;20777;-63
2023/02/07 02:06:14;;;;;;;17.33;13.32;;;-1.80;99.90;;;;;;5135532;27;20410;-62
2023/02/07 02:08:42;;;;;;;18.50;14.13;;;-1.80;99.90;;;;;;5135674;27;20417;-64
2023/02/07 02:11:27;;;;;;;20.23;13.98;;;-1.80;99.90;;;;;;5135217;27;20413;-64
2023/02/07 02:14:10;;;;;;;20.33;14.15;;;-1.90;99.90;;;;;;5135720;27;20406;-65
2023/02/07 02:16:42;;;;;;;18.90;14.43;;;-1.80;99.90;;;;;;5135388;27;20433;-64
2023/02/07 02:19:38;;;;;;;19.92;14.50;;;-1.80;99.90;;;;;;5135501;27;20421;-64
2023/02/07 02:22:33;;;;;;;21.13;15.20;;;-1.80;99.90;;;;;;5135599;27;20399;-64
2023/02/07 02:25:29;;;;;;;21.27;14.18;;;-1.90;99.90;;;;;;5143935;27;20576;-63
2023/02/07 02:28:24;;;;;;;19.67;14.02;;;-1.90;99.90;;;;;;5135945;27;20417;-64
2023/02/07 02:31:25;;;;;;;24.48;16.30;;;-1.90;99.90;;;;;;5129342;27;20896;-63
2023/02/07 02:33:57;;;;;;;21.25;14.60;;;-1.90;99.90;;;;;;5134919;27;20413;-64
2023/02/07 02:36:33;;;;;;;20.90;14.73;;;-1.90;99.90;;;;;;5135384;27;20428;-64
2023/02/07 02:39:08;;;;;;;21.70;14.60;;;-2.00;99.90;;;;;;5135716;27;20402;-63
2023/02/07 02:41:40;;;;;;;21.50;14.50;;;-2.00;99.90;;;;;;5136346;27;20870;-64
2023/02/07 02:44:12;;;;;;;19.87;14.37;;;-2.00;99.90;;;;;;5136423;27;20468;-63
2023/02/07 02:46:41;;;;;;;21.35;15.60;;;-2.00;99.90;;;;;;5138274;27;20395;-63
2023/02/07 02:49:13;;;;;;;22.73;14.73;;;-2.00;99.90;;;;;;5138193;27;20428;-62
2023/02/07 02:51:40;;;;;;;20.92;14.10;;;-2.10;99.90;;;;;;5138856;27;20406;-63
2023/02/07 02:54:26;;;;;;;21.40;14.95;;;-2.10;99.90;;;;;;5140559;27;20411;-65
2023/02/07 02:57:06;;;;;;;21.30;14.33;;;-2.10;99.90;;;;;;5137381;27;20428;-63
2023/02/07 02:59:51;;;;;;;20.17;14.18;;;-2.10;99.90;;;;;;5136902;27;20493;-64
2023/02/07 03:02:27;;;;;;;22.00;14.90;;;-2.10;99.90;;;;;;5136678;27;20412;-63
2023/02/07 03:05:12;;;;;;;20.40;15.18;;;-2.10;99.90;;;;;;5136883;27;20894;-62
2023/02/07 03:07:48;;;;;;;20.73;15.13;;;-2.20;99.90;;;;;;5136270;27;20404;-62
2023/02/07 03:10:25;;;;;;;23.10;15.88;;;-2.20;99.90;;;;;;5137065;27;20413;-64
2023/02/07 03:12:57;;;;;;;21.52;15.13;;;-2.20;99.90;;;;;;5139225;27;20893;-63
2023/02/07 03:15:36;;;;;;;20.05;14.40;;;-2.30;99.90;;;;;;5139799;27;20429;-64
2023/02/07 03:18:10;;;;;;;22.20;15.35;;;-2.30;99.90;;;;;;5140521;27;20432;-63
2023/02/07 03:20:44;;;;;;;23.73;16.10;;;-2.30;99.90;;;;;;5143154;27;20410;-63
2023/02/07 03:23:12;;;;;;;22.25;15.95;;;-2.30;99.90;;;;;;5142875;27;20413;-63
2023/02/07 03:25:41;;;;;;;23.42;15.90;;;-2.30;99.90;;;;;;5140500;27;20398;-63
2023/02/07 03:28:09;;;;;;;21.80;16.30;;;-2.30;99.90;;;;;;5135793;27;20493;-64
2023/02/07 03:30:39;;;;;;;21.30;15.82;;;-2.30;99.90;;;;;;5135227;27;20440;-64
2023/02/07 03:33:08;;;;;;;19.92;14.75;;;-2.30;99.90;;;;;;5135369;27;20817;-63
2023/02/07 03:35:41;;;;;;;23.77;15.40;;;-2.40;99.90;;;;;;5135268;27;20956;-62
2023/02/07 03:38:11;;;;;;;25.30;16.75;;;-2.40;99.90;;;;;;5137521;27;20430;-62
2023/02/07 03:40:42;;;;;;;23.48;16.45;;;-2.50;99.90;;;;;;5143176;27;20769;-63
2023/02/07 03:43:13;;;;;;;23.13;16.00;;;-2.50;99.90;;;;;;5143559;27;20416;-63
2023/02/07 03:45:40;;;;;;;23.55;16.15;;;-2.50;99.90;;;;;;5143045;27;20758;-63
2023/02/07 03:48:07;;;;;;;23.23;16.30;;;-2.50;99.90;;;;;;5142972;27;20402;-62
2023/02/07 03:50:34;;;;;;;24.80;16.67;;;-2.50;99.90;;;;;;5136595;27;20434;-63
2023/02/07 03:53:02;;;;;;;21.92;16.08;;;-2.50;99.90;;;;;;5134008;27;20486;-62
2023/02/07 03:55:29;;;;;;;23.73;17.00;;;-2.50;99.90;;;;;;5133919;27;20410;-62
2023/02/07 03:57:56;;;;;;;23.67;16.40;;;-2.50;99.90;;;;;;5133803;27;20453;-63
2023/02/07 04:00:23;;;;;;;24.30;16.90;;;-2.50;99.90;;;;;;5133497;27;20782;-63
2023/02/07 04:02:49;;;;;;;25.55;16.85;;;-2.50;99.90;;;;;;5133341;27;20411;-63
2023/02/07 04:05:16;;;;;;;23.98;17.20;;;-2.50;99.90;;;;;;5141034;27;20409;-63
2023/02/07 04:11:08;;;;;;;24.60;15.80;;;-2.50;99.90;;;;;;5111281;27;20701;-63
2023/02/07 04:13:35;;;;;;;24.27;17.45;;;-2.50;99.90;;;;;;5110732;28;20405;-62
2023/02/07 04:16:01;;;;;;;24.92;16.90;;;-2.50;99.90;;;;;;5112259;28;20451;-63
2023/02/07 04:18:28;;;;;;;24.77;17.30;;;-2.50;99.90;;;;;;5111432;28;20491;-61
2023/02/07 04:21:01;;;;;;;25.45;18.50;;;-2.50;99.90;;;;;;5110814;28;20413;-62
2023/02/07 04:23:27;;;;;;;26.15;18.73;;;-2.60;99.90;;;;;;5110758;28;20888;-63
2023/02/07 04:25:54;;;;;;;25.98;17.98;;;-2.60;99.90;;;;;;5102632;22;20424;-64
2023/02/07 04:28:22;;;;;;;27.80;18.65;;;-2.60;99.90;;;;;;5069329;28;20401;-63
2023/02/07 04:30:49;;;;;;;23.83;17.15;;;-2.70;99.90;;;;;;5069254;28;20440;-64
2023/02/07 04:33:16;;;;;;;25.00;18.23;;;-2.70;99.90;;;;;;5069114;28;20408;-63
2023/02/07 04:35:43;;;;;;;29.35;18.17;;;-2.70;99.90;;;;;;5068936;28;20827;-64
2023/02/07 04:38:10;;;;;;;26.95;18.90;;;-2.70;99.90;;;;;;5069242;28;20519;-64
2023/02/07 04:40:38;;;;;;;26.20;17.98;;;-2.70;99.90;;;;;;5069134;28;20492;-64
2023/02/07 04:43:05;;;;;;;26.65;18.40;;;-2.70;99.90;;;;;;5069035;28;20418;-64
2023/02/07 04:45:33;;;;;;;28.52;19.40;;;-2.70;99.90;;;;;;5068706;28;20419;-63
2023/02/07 04:48:00;;;;;;;34.55;19.33;;;-2.70;99.90;;;;;;5068926;28;20423;-63
2023/02/07 04:50:27;;;;;;;27.30;19.05;;;-2.70;99.90;;;;;;5068910;28;20433;-64
2023/02/07 04:52:54;;;;;;;28.17;19.25;;;-2.70;99.90;;;;;;5069208;28;20417;-64
2023/02/07 04:55:21;;;;;;;27.70;19.13;;;-2.70;99.90;;;;;;5068825;28;20413;-64
2023/02/07 04:57:48;;;;;;;27.90;18.77;;;-2.70;99.90;;;;;;5068283;28;20412;-64
2023/02/07 05:00:16;;;;;;;28.77;19.23;;;-2.70;99.90;;;;;;5068267;28;20911;-62
2023/02/07 05:02:44;;;;;;;30.00;18.92;;;-2.70;99.90;;;;;;5068440;28;20412;-62
2023/02/07 05:05:11;;;;;;;32.50;20.90;;;-2.70;99.90;;;;;;5068641;28;20413;-62
2023/02/07 05:07:38;;;;;;;28.40;17.88;;;-2.70;99.90;;;;;;5068875;28;20417;-63
2023/02/07 05:10:05;;;;;;;28.05;18.27;;;-2.70;99.90;;;;;;5068513;28;20428;-63
2023/02/07 05:12:32;;;;;;;26.17;17.95;;;-2.70;99.90;;;;;;5068424;28;20416;-63
2023/02/07 05:14:59;;;;;;;27.35;18.55;;;-2.70;99.90;;;;;;5069683;28;20493;-62
2023/02/07 05:17:26;;;;;;;28.10;18.30;;;-2.70;99.90;;;;;;5069222;28;20945;-62
2023/02/07 05:19:54;;;;;;;28.38;18.02;;;-2.70;99.90;;;;;;5068809;28;20860;-63
2023/02/07 05:22:21;;;;;;;26.33;18.60;;;-2.70;99.90;;;;;;5056881;28;20420;-64
2023/02/07 05:24:47;;;;;;;29.00;18.75;;;-2.80;99.90;;;;;;5055775;28;20957;-65
2023/02/07 05:27:14;;;;;;;29.00;18.85;;;-2.80;99.90;;;;;;5055202;28;20778;-63
2023/02/07 05:29:41;;;;;;;28.90;19.17;;;-2.80;99.90;;;;;;5055122;28;20425;-63
2023/02/07 05:34:56;;;;;;;28.42;18.13;;;-2.80;99.90;;;;;;5054894;28;20522;-61
2023/02/07 05:37:23;;;;;;;28.48;17.98;;;-2.80;99.90;;;;;;5055788;28;20499;-62
2023/02/07 05:39:50;;;;;;;30.15;19.80;;;-2.90;99.90;;;;;;5055262;28;20420;-60
2023/02/07 05:42:17;;;;;;;29.73;18.87;;;-2.80;99.90;;;;;;5054873;28;20425;-62
2023/02/07 05:44:44;;;;;;;30.95;20.35;;;-2.80;99.90;;;;;;5054745;28;20905;-62
2023/02/07 05:47:11;;;;;;;29.45;19.15;;;-2.80;99.90;;;;;;5055373;28;20416;-62
2023/02/07 05:49:38;;;;;;;31.50;19.40;;;-2.80;99.90;;;;;;5055129;28;20765;-61
2023/02/07 05:52:06;;;;;;;27.42;18.23;;;-2.80;99.90;;;;;;5055266;28;20429;-63
2023/02/07 05:54:33;;;;;;;29.45;18.88;;;-2.80;99.90;;;;;;5054910;28;20504;-62
2023/02/07 05:57:00;;;;;;;29.70;18.98;;;-2.90;99.90;;;;;;5055053;28;20504;-62
2023/02/07 05:59:27;;;;;;;31.15;19.20;;;-2.90;99.90;;;;;;5049482;28;20432;-64
2023/02/07 06:01:53;;;;;;;30.20;19.00;;;-2.90;99.90;;;;;;5052536;28;20429;-61
2023/02/07 06:04:20;;;;;;;31.15;19.95;;;-2.90;99.90;;;;;;5055820;28;20879;-62
2023/02/07 06:06:47;;;;;;;30.48;20.23;;;-2.90;99.90;;;;;;5050878;28;20940;-61
2023/02/07 06:09:16;;;;;;;28.35;19.00;;;-2.90;99.90;;;;;;5050759;28;20547;-63
2023/02/07 06:11:42;;;;;;;31.65;20.70;;;-2.90;99.90;;;;;;5048711;28;20943;-61
2023/02/07 06:14:09;;;;;;;30.05;20.17;;;-2.90;99.90;;;;;;5050920;28;20425;-62
2023/02/07 06:16:36;;;;;;;31.67;19.87;;;-2.90;99.90;;;;;;5047918;28;20867;-64
2023/02/07 06:19:03;;;;;;;30.75;20.15;;;-2.90;99.90;;;;;;5050857;28;20520;-63
2023/02/07 06:21:30;;;;;;;31.60;20.75;;;-2.90;99.90;;;;;;5052223;28;20539;-62
2023/02/07 06:23:57;;;;;;;29.17;19.70;;;-2.90;99.90;;;;;;5057561;28;20855;-63
2023/02/07 06:26:25;;;;;;;30.90;20.60;;;-2.90;99.90;;;;;;5053165;28;20868;-62
2023/02/07 06:28:52;;;;;;;32.60;20.17;;;-2.90;99.90;;;;;;5053783;28;20435;-61
2023/02/07 06:31:18;;;;;;;30.17;19.27;;;-2.90;99.90;;;;;;5052240;28;20525;-63
2023/02/07 06:33:45;;;;;;;29.45;19.60;;;-2.90;99.90;;;;;;5053475;28;20418;-62
2023/02/07 06:36:12;;;;;;;31.33;20.13;;;-2.90;99.90;;;;;;5054107;28;20413;-63
2023/02/07 06:38:39;;;;;;;30.77;20.10;;;-2.90;99.90;;;;;;5052960;28;20975;-63
2023/02/07 06:41:09;;;;;;;28.85;19.42;;;-2.80;99.90;;;;;;5051005;28;20440;-64
2023/02/07 06:43:38;;;;;;;31.45;20.48;;;-2.90;99.90;;;;;;5061559;28;20415;-64
2023/02/07 06:46:05;;;;;;;32.38;20.80;;;-2.80;99.90;;;;;;5053318;28;20929;-64
2023/02/07 06:48:31;;;;;;;31.40;19.63;;;-2.80;99.90;;;;;;5053274;28;20424;-63
2023/02/07 06:50:58;;;;;;;32.63;19.55;;;-2.90;99.90;;;;;;5053212;28;20436;-62
2023/02/07 06:53:27;;;;;;;32.33;20.45;;;-2.90;99.90;;;;;;5053576;28;20425;-63
2023/02/07 06:55:54;;;;;;;33.83;21.60;;;-2.90;99.90;;;;;;5054023;28;20427;-62
2023/02/07 06:58:20;;;;;;;32.35;21.27;;;-2.80;99.90;;;;;;5053473;28;20416;-63
2023/02/07 07:00:49;;;;;;;30.27;20.40;;;-2.80;99.90;;;;;;5053762;28;20477;-63
2023/02/07 07:03:17;;;;;;;30.07;19.90;;;-2.80;99.90;;;;;;5053645;28;20504;-63
2023/02/07 07:05:44;;;;;;;36.70;21.93;;;-2.80;99.90;;;;;;5053830;28;20519;-63
2023/02/07 07:08:14;;;;;;;32.65;21.15;;;-2.80;99.90;;;;;;5053407;28;20409;-63
2023/02/07 07:10:41;;;;;;;33.28;21.77;;;-2.70;99.90;;;;;;5052971;28;20519;-64
2023/02/07 07:13:07;;;;;;;33.25;20.45;;;-2.70;99.90;;;;;;5053338;28;20496;-63
2023/02/07 07:15:34;;;;;;;32.08;20.55;;;-2.70;99.90;;;;;;5052849;28;20417;-63
2023/02/07 07:18:02;;;;;;;33.70;21.58;;;-2.70;99.90;;;;;;5053437;28;20417;-62
2023/02/07 07:20:29;;;;;;;31.67;19.75;;;-2.60;99.90;;;;;;5053552;28;20820;-62
2023/02/07 07:22:56;;;;;;;33.20;21.73;;;-2.60;99.90;;;;;;5053669;28;20416;-62
2023/02/07 07:25:23;;;;;;;34.25;20.80;;;-2.60;99.90;;;;;;5053312;28;20424;-61
2023/02/07 07:27:51;;;;;;;33.03;21.20;;;-2.50;99.90;;;;;;5053745;28;20409;-63
2023/02/07 07:30:18;;;;;;;34.05;20.60;;;-2.50;99.90;;;;;;5053431;28;20909;-62
2023/02/07 07:32:45;;;;;;;33.90;20.60;;;-2.40;99.90;;;;;;5053876;28;20409;-62
2023/02/07 07:35:13;;;;;;;32.47;19.60;;;-2.40;99.90;;;;;;5052558;28;20960;-63
2023/02/07 07:37:40;;;;;;;31.30;20.30;;;-2.30;99.90;;;;;;5052932;28;20498;-62
2023/02/07 07:40:08;;;;;;;32.35;20.20;;;-2.10;99.90;;;;;;5053404;28;20413;-63
2023/02/07 07:42:35;;;;;;;33.60;20.20;;;-2.00;99.90;;;;;;5053255;28;20460;-62
2023/02/07 07:45:02;;;;;;;32.75;20.80;;;-1.90;99.90;;;;;;5052825;28;20881;-63
2023/02/07 07:47:29;;;;;;;30.25;19.50;;;-1.60;99.90;;;;;;5052682;28;20504;-63
2023/02/07 07:49:56;;;;;;;24.98;17.60;;;-1.10;99.90;;;;;;5052888;28;20923;-61
2023/02/07 07:52:24;;;;;;;27.08;18.92;;;-0.80;99.90;;;;;;5052845;28;20412;-63
2023/02/07 07:54:51;;;;;;;27.10;17.90;;;-0.50;99.90;;;;;;5052780;28;20415;-62
2023/02/07 07:57:18;;;;;;;22.30;16.92;;;-0.40;99.90;;;;;;5053192;28;20417;-65
2023/02/07 07:59:45;;;;;;;26.73;18.88;;;-0.40;99.90;;;;;;5053717;28;20501;-63
2023/02/07 08:02:12;;;;;;;26.15;18.00;;;-0.50;99.90;;;;;;5053375;28;20441;-64
2023/02/07 08:04:39;;;;;;;28.35;19.48;;;-0.50;99.90;;;;;;5053285;28;20448;-64
2023/02/07 08:07:06;;;;;;;25.02;17.95;;;-0.50;99.90;;;;;;5052509;28;20912;-63
2023/02/07 08:09:34;;;;;;;24.67;18.20;;;-0.50;99.90;;;;;;5053369;28;20516;-63
2023/02/07 08:12:01;;;;;;;25.42;18.50;;;-0.50;99.90;;;;;;5052799;28;20435;-65
2023/02/07 08:14:28;;;;;;;25.92;19.70;;;-0.50;99.90;;;;;;5052365;28;20830;-64
2023/02/07 08:16:54;;;;;;;27.05;19.42;;;-0.60;99.90;;;;;;5052164;28;20913;-64
2023/02/07 08:19:22;;;;;;;26.35;19.50;;;-0.60;99.90;;;;;;5052638;28;20458;-64
2023/02/07 08:21:48;;;;;;;27.92;19.05;;;-0.60;99.90;;;;;;5052179;28;20784;-63
2023/02/07 08:24:15;;;;;;;25.23;18.65;;;-0.60;99.90;;;;;;5052247;28;20499;-64
2023/02/07 08:26:43;;;;;;;24.10;18.08;;;-0.50;99.90;;;;;;5052518;28;20412;-63
2023/02/07 08:29:11;;;;;;;24.90;17.50;;;-0.40;99.90;;;;;;5052234;28;20984;-62
2023/02/07 08:31:38;;;;;;;23.75;16.80;;;-0.30;99.90;;;;;;5052208;28;20431;-64
2023/02/07 08:34:05;;;;;;;20.55;16.10;;;-0.20;99.90;;;;;;5051975;28;20843;-63
2023/02/07 08:36:32;;;;;;;18.17;14.90;;;0.00;99.90;;;;;;5052417;28;20504;-63
2023/02/07 08:38:59;;;;;;;17.58;14.20;;;0.10;99.90;;;;;;5052112;28;20420;-64
2023/02/07 08:41:26;;;;;;;17.80;14.07;;;0.20;99.90;;;;;;5051847;28;20500;-63
2023/02/07 08:43:54;;;;;;;17.77;14.60;;;0.30;99.90;;;;;;5052095;28;20420;-63
2023/02/07 08:46:21;;;;;;;25.25;17.13;;;0.40;99.90;;;;;;5051684;28;20417;-64
2023/02/07 08:48:48;;;;;;;25.27;16.88;;;0.40;99.90;;;;;;5053345;28;20435;-64
2023/02/07 08:51:14;;;;;;;19.33;14.60;;;0.40;99.90;;;;;;5052635;28;20436;-63
2023/02/07 08:53:41;;;;;;;17.52;13.65;;;0.40;99.90;;;;;;5052132;28;20500;-63
2023/02/07 08:56:08;;;;;;;18.17;13.82;;;0.40;99.90;;;;;;5053273;28;20417;-63
2023/02/07 08:58:35;;;;;;;16.63;13.70;;;0.40;99.90;;;;;;5056282;28;20430;-63
2023/02/07 09:01:03;;;;;;;19.13;14.88;;;0.50;99.90;;;;;;5056752;28;20412;-63
2023/02/07 09:03:30;;;;;;;18.27;14.20;;;0.50;99.90;;;;;;5055701;28;20415;-63
2023/02/07 09:05:58;;;;;;;16.98;14.60;;;0.50;99.90;;;;;;5055568;28;20793;-62
2023/02/07 09:08:25;;;;;;;17.85;14.15;;;0.50;99.90;;;;;;5055583;28;20843;-63
2023/02/07 09:10:52;;;;;;;17.30;14.38;;;0.50;99.90;;;;;;5055376;28;20765;-64
2023/02/07 09:13:19;;;;;;;19.98;14.40;;;0.50;99.90;;;;;;5056072;28;20488;-64
2023/02/07 09:15:46;;;;;;;16.17;13.48;;;0.50;99.90;;;;;;5054527;28;20980;-64
2023/02/07 09:18:14;;;;;;;17.20;14.32;;;0.60;99.90;;;;;;5055339;28;20872;-64
2023/02/07 09:20:41;;;;;;;18.80;14.73;;;0.60;99.90;;;;;;5055187;28;20413;-65
2023/02/07 09:23:20;;;;;;;20.00;14.50;;;0.70;99.90;;;;;;5054926;28;20417;-63
2023/02/07 09:25:48;;;;;;;17.15;13.65;;;0.70;99.90;;;;;;5054556;28;20956;-64
2023/02/07 09:28:15;;;;;;;16.70;14.13;;;0.80;99.90;;;;;;5055033;28;20501;-63
2023/02/07 09:30:42;;;;;;;16.17;13.85;;;0.90;99.90;;;;;;5055010;28;20800;-63
2023/02/07 09:33:09;;;;;;;18.00;13.98;;;1.00;99.90;;;;;;5054690;28;20448;-64
2023/02/07 09:35:39;;;;;;;15.48;12.93;;;1.10;99.90;;;;;;5054735;28;20479;-63
2023/02/07 09:38:14;;;;;;;15.70;13.00;;;1.20;99.90;;;;;;5054871;28;20423;-64
2023/02/07 09:40:41;;;;;;;15.90;13.30;;;1.30;99.90;;;;;;5055645;28;20505;-63
2023/02/07 09:43:15;;;;;;;17.83;14.00;;;1.30;99.90;;;;;;5055239;28;20409;-61
2023/02/07 09:45:45;;;;;;;16.50;13.20;;;1.40;99.90;;;;;;5054675;28;20940;-64
2023/02/07 09:48:19;;;;;;;17.35;14.07;;;1.50;99.90;;;;;;5054655;28;20413;-63
2023/02/07 09:50:51;;;;;;;15.52;12.63;;;1.60;99.90;;;;;;5054207;28;20439;-64
2023/02/07 09:53:23;;;;;;;16.42;12.80;;;1.60;99.90;;;;;;5054828;28;20419;-64
2023/02/07 09:55:53;;;;;;;16.70;12.23;;;1.70;99.90;;;;;;5054259;28;20501;-62
2023/02/07 09:58:27;;;;;;;15.63;12.77;;;1.70;99.90;;;;;;5054469;28;20440;-64
2023/02/07 10:01:02;;;;;;;18.10;12.60;;;1.70;99.90;;;;;;5054832;28;20409;-62
2023/02/07 10:03:29;;;;;;;14.30;12.18;;;1.80;99.90;;;;;;5054162;28;20864;-63
2023/02/07 10:06:01;;;;;;;18.37;12.67;;;1.80;99.80;;;;;;5054398;28;20436;-63
2023/02/07 10:08:28;;;;;;;13.13;11.45;;;1.90;99.70;;;;;;5054306;28;20508;-62
2023/02/07 10:11:09;;;;;;;14.73;11.20;;;2.00;99.50;;;;;;5054421;28;20433;-63
2023/02/07 10:14:02;;;;;;;14.07;10.95;;;2.10;99.10;;;;;;5054948;28;20444;-64
2023/02/07 10:16:46;;;;;;;13.18;11.40;;;2.20;98.10;;;;;;5054744;28;20425;-63
2023/02/07 10:19:24;;;;;;;14.75;11.25;;;2.30;97.20;;;;;;5054226;28;20413;-63
2023/02/07 10:22:02;;;;;;;13.65;11.48;;;2.40;96.70;;;;;;5054619;28;20421;-64
2023/02/07 10:27:11;;;;;;;15.57;12.10;;;2.50;96.30;;;;;;5075338;28;20423;-63
2023/02/07 10:29:51;;;;;;;16.13;12.55;;;2.50;96.40;;;;;;5078732;28;20431;-63
2023/02/07 10:32:23;;;;;;;13.20;11.53;;;2.60;95.70;;;;;;5079918;28;20528;-63
2023/02/07 10:34:54;;;;;;;14.70;12.38;;;2.60;94.80;;;;;;5080273;28;20411;-61
2023/02/07 10:37:25;;;;;;;20.93;13.47;;;2.80;94.40;;;;;;5079583;28;20431;-63
2023/02/07 10:39:58;;;;;;;16.35;13.00;;;2.80;93.00;;;;;;5079939;28;20415;-63
2023/02/07 10:42:27;;;;;;;15.07;12.27;;;2.80;91.70;;;;;;5077572;28;20403;-61
2023/02/07 10:44:54;;;;;;;12.68;11.18;;;2.90;91.90;;;;;;5074960;28;20441;-62
2023/02/07 10:47:22;;;;;;;12.55;11.25;;;3.00;91.20;;;;;;5074909;28;20455;-63
2023/02/07 10:49:51;;;;;;;18.27;13.25;;;3.10;90.60;;;;;;5080200;28;20830;-62
2023/02/07 10:52:28;;;;;;;16.40;12.23;;;3.10;89.20;;;;;;5077602;28;20419;-63
2023/02/07 10:54:58;;;;;;;13.43;11.45;;;3.00;86.00;;;;;;5074888;28;20500;-62
2023/02/07 10:57:26;;;;;;;11.77;10.10;;;3.00;87.70;;;;;;5074657;28;20514;-63
2023/02/07 10:59:59;;;;;;;12.77;9.85;;;3.10;87.90;;;;;;5073603;28;20902;-61
2023/02/07 11:02:38;;;;;;;19.08;11.18;;;3.10;86.50;;;;;;5073665;28;20414;-62
2023/02/07 11:05:25;;;;;;;14.77;11.23;;;3.20;85.10;;;;;;5073677;28;20423;-63
2023/02/07 11:07:59;;;;;;;14.05;10.50;;;3.20;82.70;;;;;;5074049;28;20411;-63
2023/02/07 11:10:30;;;;;;;13.85;10.63;;;3.30;82.70;;;;;;5074091;28;20419;-62
2023/02/07 11:12:59;;;;;;;14.80;11.32;;;3.40;82.70;;;;;;5074022;28;20533;-63
2023/02/07 11:15:34;;;;;;;13.90;11.00;;;3.50;81.60;;;;;;5074377;28;20466;-60
2023/02/07 11:18:01;;;;;;;16.77;10.75;;;3.60;80.50;;;;;;5073753;28;20447;-63
2023/02/07 11:20:32;;;;;;;16.08;12.00;;;3.60;77.30;;;;;;5073918;28;20499;-63
2023/02/07 11:23:03;;;;;;;13.60;10.38;;;3.70;75.60;;;;;;5074709;28;20470;-63
2023/02/07 11:25:35;;;;;;;11.65;9.60;;;3.80;76.10;;;;;;5074306;28;20508;-62
2023/02/07 11:28:02;;;;;;;11.85;8.70;;;3.80;75.10;;;;;;5074293;28;20424;-62
2023/02/07 11:30:33;;;;;;;10.13;8.98;;;3.90;72.80;;;;;;5073848;28;20470;-63
2023/02/07 11:33:03;;;;;;;13.43;9.23;;;3.90;71.10;;;;;;5073276;28;20899;-63
2023/02/07 11:35:30;;;;;;;14.68;9.15;;;3.80;69.40;;;;;;5073714;28;20412;-62
2023/02/07 11:38:03;;;;;;;13.70;8.83;;;3.80;68.40;;;;;;5073667;28;20424;-63
2023/02/07 11:40:36;;;;;;;14.90;10.10;;;3.80;67.70;;;;;;5075736;28;20414;-63
2023/02/07 11:43:09;;;;;;;10.80;8.50;;;3.90;67.80;;;;;;5074306;28;20883;-63
2023/02/07 11:45:40;;;;;;;11.32;9.20;;;4.00;68.20;;;;;;5074592;28;20744;-64
2023/02/07 11:48:07;;;;;;;11.82;8.75;;;4.00;66.90;;;;;;5073620;28;20412;-64
2023/02/07 11:50:38;;;;;;;10.95;8.50;;;4.10;65.90;;;;;;5075143;28;20439;-63
2023/02/07 11:53:07;;;;;;;11.90;8.85;;;4.10;63.60;;;;;;5074306;28;20427;-63
2023/02/07 11:55:36;;;;;;;12.20;9.40;;;4.20;62.10;;;;;;5074730;28;20503;-63
2023/02/07 11:58:09;;;;;;;11.57;8.90;;;4.20;61.70;;;;;;5074977;28;20494;-63
2023/02/07 12:00:37;;;;;;;12.85;9.70;;;4.20;61.10;;;;;;5073470;28;20407;-64
2023/02/07 12:03:09;;;;;;;10.68;8.75;;;4.30;62.00;;;;;;5073343;28;20779;-64
2023/02/07 12:05:39;;;;;;;13.00;9.00;;;4.30;62.20;;;;;;5074387;28;20410;-63
2023/02/07 12:08:13;;;;;;;12.15;9.40;;;4.30;60.50;;;;;;5075281;28;20404;-63
2023/02/07 12:10:43;;;;;;;12.65;9.98;;;4.30;60.90;;;;;;5075785;28;20479;-63
2023/02/07 12:13:15;;;;;;;14.23;9.35;;;4.40;60.50;;;;;;5084652;28;20432;-63
2023/02/07 12:15:47;;;;;;;11.60;8.90;;;4.40;60.20;;;;;;5085105;28;20502;-64
2023/02/07 12:18:20;;;;;;;12.30;9.50;;;4.50;59.20;;;;;;5084192;28;20446;-64
2023/02/07 12:20:55;;;;;;;12.00;9.55;;;4.40;58.70;;;;;;5083159;28;20407;-64
2023/02/07 12:23:35;;;;;;;11.50;8.90;;;4.40;58.40;;;;;;5080878;28;20438;-62
2023/02/07 12:26:06;;;;;;;11.77;9.57;;;4.40;58.70;;;;;;5080936;28;20419;-64
2023/02/07 12:28:40;;;;;;;11.35;8.43;;;4.40;58.90;;;;;;5082246;28;20412;-63
2023/02/07 12:31:17;;;;;;;12.05;9.52;;;4.40;58.80;;;;;;5077257;28;20419;-64
2023/02/07 12:33:52;;;;;;;10.60;7.90;;;4.40;58.40;;;;;;5078472;28;20419;-62
2023/02/07 12:36:25;;;;;;;10.52;8.50;;;4.40;57.90;;;;;;5078208;28;20415;-64
2023/02/07 12:39:00;;;;;;;9.88;8.25;;;4.40;58.20;;;;;;5084753;28;20430;-63
2023/02/07 12:41:33;;;;;;;13.55;8.18;;;4.50;58.80;;;;;;5079274;28;20766;-64
2023/02/07 12:44:08;;;;;;;10.30;7.97;;;4.50;58.60;;;;;;5077390;28;20865;-64
2023/02/07 12:46:46;;;;;;;10.10;8.20;;;4.60;57.20;;;;;;5077116;28;20414;-63
2023/02/07 12:49:43;;;;;;;10.43;7.90;;;4.60;56.40;;;;;;5077751;28;20482;-63
2023/02/07 12:52:24;;;;;;;9.00;7.32;;;4.70;56.60;;;;;;5077590;28;20434;-64